MOL Celebration — C6WW7 — position and weather

sailwx.info

Track history (hours):
 
Tides and Currents Weather Stations Pressure Air Temp Water Temp Dewpoint Dewpoint Depression Visibility Wind Speed Wind Dir Waves Ship Positions

MOL Celebration

Last reported at 2017-Oct-16 22:30 UTC. Time now 2017-Oct-17 01:24 UTC.
Position N 22°08' E 114°19'.

Length 316 m; draft 12.2 m.

Type: Ship (hazmat cat D). MMSI: 309901000.

Date/timePositionNaut miles runAvg speedWind from/ knotsBaromVisibWave heightAir tempDewpointWater temp
2017-Oct-16 22:30N 22°08' E 114°19'3 6.2
2017-Oct-16 22:00N 22°07' E 114°22'3 5.5
2017-Oct-16 21:30N 22°07' E 114°25'4 8.5
2017-Oct-16 21:00N 22°04' E 114°29'2 4.1
2017-Oct-16 20:30N 22°03' E 114°30'0 0.0
2017-Oct-16 20:00N 22°03' E 114°30'0 0.0
2017-Oct-16 19:30N 22°03' E 114°30'0 0.0
2017-Oct-16 19:00N 22°03' E 114°30'0 0.0
2017-Oct-16 18:30N 22°03' E 114°30'0 0.1
2017-Oct-16 18:00N 22°03' E 114°30'0 0.0
2017-Oct-16 16:57N 22°03' E 114°30'0 0.0
2017-Oct-16 16:30N 22°03' E 114°30'0 0.0
2017-Oct-16 16:00N 22°03' E 114°30'0 0.0
2017-Oct-16 15:24N 22°03' E 114°30'0 0.0
2017-Oct-16 14:57N 22°03' E 114°30'0 0.0
2017-Oct-16 14:00N 22°03' E 114°30'0 0.0
2017-Oct-16 13:30N 22°03' E 114°30'0 0.0
2017-Oct-16 12:54N 22°03' E 114°30'0 0.0
2017-Oct-16 12:30N 22°03' E 114°30'0 0.0
2017-Oct-16 11:59N 22°03' E 114°30'0 0.0
2017-Oct-16 11:30N 22°03' E 114°30'0 0.0
2017-Oct-16 11:00N 22°03' E 114°30'0 0.0
2017-Oct-16 10:23N 22°03' E 114°30'242 8.3
2017-Oct-15 05:07N 23°50' E 118°26'  
2017-Oct-12 14:30N 34°43' E 139°38'1122.1
2017-Oct-12 14:00N 34°54' E 139°38'1019.3
2017-Oct-12 13:30N 35°03' E 139°42'714.8
2017-Oct-12 13:01N 35°10' E 139°45'4 8.9
2017-Oct-12 12:30N 35°14' E 139°46'612.6
2017-Oct-12 12:01N 35°20' E 139°43'612.7
2017-Oct-12 11:31N 35°26' E 139°45'714.6
2017-Oct-12 11:00N 35°31' E 139°51'611.8
2017-Oct-12 10:29N 35°36' E 139°46'0 0.9
2017-Oct-12 10:00N 35°36' E 139°46'0 0.0
2017-Oct-12 09:27N 35°36' E 139°46'0 0.0
2017-Oct-12 09:00N 35°36' E 139°46'0 0.0
2017-Oct-12 08:30N 35°36' E 139°46'0 0.0
2017-Oct-12 07:57N 35°36' E 139°46'0 0.0
2017-Oct-12 07:27N 35°36' E 139°46'0 0.0
2017-Oct-12 06:57N 35°36' E 139°46'0 0.0
2017-Oct-12 06:30N 35°36' E 139°46'0 0.0
2017-Oct-12 05:57N 35°36' E 139°46'0 0.0
2017-Oct-12 05:30N 35°36' E 139°46'0 0.0
2017-Oct-12 05:00N 35°36' E 139°46'0 0.0
2017-Oct-12 04:30N 35°36' E 139°46'0 0.0
2017-Oct-12 04:00N 35°36' E 139°46'0 0.0
2017-Oct-12 03:30N 35°36' E 139°46'0 0.0
2017-Oct-12 03:00N 35°36' E 139°46'0 0.0
2017-Oct-12 02:30N 35°36' E 139°46'0 0.0
2017-Oct-12 02:00N 35°36' E 139°46'0 0.0
2017-Oct-12 01:30N 35°36' E 139°46'0 0.1
2017-Oct-11 22:19N 35°36' E 139°46'2 4.5
2017-Oct-11 21:56N 35°35' E 139°48'10 8.3
2017-Oct-11 20:44N 35°25' E 139°47'311.9
2017-Oct-11 20:27N 35°22' E 139°45'510.7
2017-Oct-11 20:00N 35°17' E 139°45'611.0
2017-Oct-11 19:30N 35°12' E 139°47'4 7.9
2017-Oct-11 19:00N 35°08' E 139°46'2 4.2
2017-Oct-11 18:30N 35°06' E 139°47'4 8.7
2017-Oct-11 18:00N 35°02' E 139°44'5 9.7
2017-Oct-11 17:30N 34°58' E 139°42'510.6
2017-Oct-11 17:00N 34°52' E 139°42'  
Track history (hours):
 
Tides and Currents Weather Stations Pressure Air Temp Water Temp Dewpoint Dewpoint Depression Visibility Wind Speed Wind Dir Waves Ship Positions

MOL Celebration

Last reported at 2017-Oct-16 22:30 UTC. Time now 2017-Oct-17 01:24 UTC.
Position N 22°08' E 114°19'.

Length 316 m; draft 12.2 m.

Type: Ship (hazmat cat D). MMSI: 309901000.

Date/timePositionNaut miles runAvg speedWind from/ knotsBaromVisibWave heightAir tempDewpointWater temp
2017-Oct-16 22:30N 22°08' E 114°19'3 6.2
2017-Oct-16 22:00N 22°07' E 114°22'3 5.5
2017-Oct-16 21:30N 22°07' E 114°25'4 8.5
2017-Oct-16 21:00N 22°04' E 114°29'2 4.1
2017-Oct-16 20:30N 22°03' E 114°30'0 0.0
2017-Oct-16 20:00N 22°03' E 114°30'0 0.0
2017-Oct-16 19:30N 22°03' E 114°30'0 0.0
2017-Oct-16 19:00N 22°03' E 114°30'0 0.0
2017-Oct-16 18:30N 22°03' E 114°30'0 0.1
2017-Oct-16 18:00N 22°03' E 114°30'0 0.0
2017-Oct-16 16:57N 22°03' E 114°30'0 0.0
2017-Oct-16 16:30N 22°03' E 114°30'0 0.0
2017-Oct-16 16:00N 22°03' E 114°30'0 0.0
2017-Oct-16 15:24N 22°03' E 114°30'0 0.0
2017-Oct-16 14:57N 22°03' E 114°30'0 0.0
2017-Oct-16 14:00N 22°03' E 114°30'0 0.0
2017-Oct-16 13:30N 22°03' E 114°30'0 0.0
2017-Oct-16 12:54N 22°03' E 114°30'0 0.0
2017-Oct-16 12:30N 22°03' E 114°30'0 0.0
2017-Oct-16 11:59N 22°03' E 114°30'0 0.0
2017-Oct-16 11:30N 22°03' E 114°30'0 0.0
2017-Oct-16 11:00N 22°03' E 114°30'0 0.0
2017-Oct-16 10:23N 22°03' E 114°30'242 8.3
2017-Oct-15 05:07N 23°50' E 118°26'  
2017-Oct-12 14:30N 34°43' E 139°38'1122.1
2017-Oct-12 14:00N 34°54' E 139°38'1019.3
2017-Oct-12 13:30N 35°03' E 139°42'714.8
2017-Oct-12 13:01N 35°10' E 139°45'4 8.9
2017-Oct-12 12:30N 35°14' E 139°46'612.6
2017-Oct-12 12:01N 35°20' E 139°43'612.7
2017-Oct-12 11:31N 35°26' E 139°45'714.6
2017-Oct-12 11:00N 35°31' E 139°51'611.8
2017-Oct-12 10:29N 35°36' E 139°46'0 0.9
2017-Oct-12 10:00N 35°36' E 139°46'0 0.0
2017-Oct-12 09:27N 35°36' E 139°46'0 0.0
2017-Oct-12 09:00N 35°36' E 139°46'0 0.0
2017-Oct-12 08:30N 35°36' E 139°46'0 0.0
2017-Oct-12 07:57N 35°36' E 139°46'0 0.0
2017-Oct-12 07:27N 35°36' E 139°46'0 0.0
2017-Oct-12 06:57N 35°36' E 139°46'0 0.0
2017-Oct-12 06:30N 35°36' E 139°46'0 0.0
2017-Oct-12 05:57N 35°36' E 139°46'0 0.0
2017-Oct-12 05:30N 35°36' E 139°46'0 0.0
2017-Oct-12 05:00N 35°36' E 139°46'0 0.0
2017-Oct-12 04:30N 35°36' E 139°46'0 0.0
2017-Oct-12 04:00N 35°36' E 139°46'0 0.0
2017-Oct-12 03:30N 35°36' E 139°46'0 0.0
2017-Oct-12 03:00N 35°36' E 139°46'0 0.0
2017-Oct-12 02:30N 35°36' E 139°46'0 0.0
2017-Oct-12 02:00N 35°36' E 139°46'0 0.0
2017-Oct-12 01:30N 35°36' E 139°46'0 0.1
2017-Oct-11 22:19N 35°36' E 139°46'2 4.5
2017-Oct-11 21:56N 35°35' E 139°48'10 8.3
2017-Oct-11 20:44N 35°25' E 139°47'311.9
2017-Oct-11 20:27N 35°22' E 139°45'510.7
2017-Oct-11 20:00N 35°17' E 139°45'611.0
2017-Oct-11 19:30N 35°12' E 139°47'4 7.9
2017-Oct-11 19:00N 35°08' E 139°46'2 4.2
2017-Oct-11 18:30N 35°06' E 139°47'4 8.7
2017-Oct-11 18:00N 35°02' E 139°44'5 9.7
2017-Oct-11 17:30N 34°58' E 139°42'510.6
2017-Oct-11 17:00N 34°52' E 139°42'  

Dump ship's entire track history